Time;durP1;ratioP1;P1;durP2;ratioP2;P2;SDS_P1;SDS_P2;PMS_P1;PMS_P2;Temp;Humidity;BMP_temperature;BMP_pressure;BME280_temperature;BME280_humidity;BME280_pressure;Samples;Min_cycle;Max_cycle;Signal;HPM_P1;HPM_P2
2021/04/30 04:11:06;;;;;;;0.90;0.90;;;8.20;99.70;;;;;;5676517;23;20734;-75
2021/04/30 04:13:33;;;;;;;0.87;0.87;;;8.20;99.90;;;;;;4996372;28;20238;-76
2021/04/30 04:16:03;;;;;;;0.80;0.80;;;8.30;99.80;;;;;;4985167;28;20205;-77
2021/04/30 04:18:31;;;;;;;0.80;0.80;;;8.20;99.80;;;;;;4974352;28;20291;-77
2021/04/30 04:20:58;;;;;;;0.80;0.80;;;8.30;99.50;;;;;;4973462;28;20314;-77
2021/04/30 04:23:25;;;;;;;0.90;0.90;;;8.30;99.50;;;;;;4999195;23;20235;-74
2021/04/30 04:25:52;;;;;;;0.70;0.70;;;8.40;99.30;;;;;;5012759;28;20223;-74
2021/04/30 04:28:20;;;;;;;0.80;0.80;;;8.40;99.20;;;;;;5005050;28;20211;-73
2021/04/30 04:30:47;;;;;;;0.90;0.90;;;8.40;99.30;;;;;;4991860;28;20216;-75
2021/04/30 04:33:14;;;;;;;0.90;0.90;;;8.40;99.30;;;;;;4987042;28;20649;-75
2021/04/30 04:35:41;;;;;;;0.90;0.90;;;8.40;99.50;;;;;;4972556;28;20230;-74
2021/04/30 04:38:08;;;;;;;0.80;0.80;;;8.50;99.10;;;;;;4973063;28;20211;-75
2021/04/30 04:40:35;;;;;;;1.00;1.00;;;8.40;99.10;;;;;;4972892;28;20263;-74
2021/04/30 04:43:02;;;;;;;0.87;0.87;;;8.40;99.20;;;;;;4972610;28;20228;-74
2021/04/30 04:45:30;;;;;;;0.90;0.90;;;8.40;99.10;;;;;;4972396;28;20208;-74
2021/04/30 04:47:58;;;;;;;1.00;1.00;;;8.50;99.20;;;;;;4972722;28;20204;-75
2021/04/30 04:50:25;;;;;;;0.90;0.90;;;8.60;99.20;;;;;;4972084;28;20598;-74
2021/04/30 04:52:51;;;;;;;0.90;0.90;;;8.50;99.20;;;;;;4972427;28;20204;-74
2021/04/30 04:55:18;;;;;;;0.70;0.70;;;8.50;99.40;;;;;;4972324;28;20305;-73
2021/04/30 04:57:45;;;;;;;1.00;1.00;;;8.50;99.20;;;;;;4972450;28;20208;-74
2021/04/30 05:00:14;;;;;;;0.80;0.80;;;8.60;99.30;;;;;;4972548;28;20200;-73
2021/04/30 05:02:41;;;;;;;0.90;0.90;;;8.60;99.30;;;;;;4972107;28;20251;-73
2021/04/30 05:05:10;;;;;;;0.80;0.80;;;8.60;99.30;;;;;;4971829;28;20769;-73
2021/04/30 05:07:37;;;;;;;0.90;0.90;;;8.70;99.20;;;;;;4988144;28;20211;-73
2021/04/30 05:10:04;;;;;;;0.90;0.90;;;8.70;99.20;;;;;;4973250;28;20232;-76
2021/04/30 05:12:31;;;;;;;0.80;0.80;;;8.80;99.20;;;;;;4973083;28;20212;-75
2021/04/30 05:14:58;;;;;;;0.90;0.90;;;8.80;98.90;;;;;;4972737;28;20232;-74
2021/04/30 05:17:25;;;;;;;0.80;0.80;;;8.90;98.70;;;;;;4972620;28;20204;-75
2021/04/30 05:19:52;;;;;;;0.90;0.90;;;8.90;98.90;;;;;;4973036;28;20196;-73
2021/04/30 05:22:20;;;;;;;0.80;0.80;;;9.00;98.90;;;;;;4972701;28;20259;-73
2021/04/30 05:24:48;;;;;;;0.80;0.80;;;9.00;99.00;;;;;;4972562;28;20232;-73
2021/04/30 05:27:15;;;;;;;0.70;0.70;;;9.10;98.70;;;;;;4972749;28;20219;-73
2021/04/30 05:29:43;;;;;;;0.70;0.70;;;9.10;98.50;;;;;;4972678;28;20592;-75
2021/04/30 05:32:11;;;;;;;0.73;0.73;;;9.30;98.40;;;;;;4972567;28;20205;-75
2021/04/30 05:34:40;;;;;;;0.80;0.80;;;9.40;98.20;;;;;;4972627;28;20224;-74
2021/04/30 05:37:09;;;;;;;0.80;0.80;;;9.30;98.40;;;;;;4972582;28;20267;-73
2021/04/30 05:39:36;;;;;;;0.80;0.80;;;9.30;98.50;;;;;;4973445;28;20201;-75
2021/04/30 05:42:04;;;;;;;0.80;0.80;;;9.40;98.40;;;;;;4974556;28;20236;-75
2021/04/30 05:44:32;;;;;;;0.80;0.80;;;9.40;98.40;;;;;;4973094;28;20224;-75
2021/04/30 05:46:59;;;;;;;0.67;0.67;;;9.40;98.40;;;;;;4973053;28;20208;-78
2021/04/30 05:49:26;;;;;;;0.70;0.70;;;9.40;98.30;;;;;;4972825;28;20231;-76
2021/04/30 05:51:54;;;;;;;0.77;0.77;;;9.40;98.30;;;;;;4975709;28;20204;-75
2021/04/30 05:54:22;;;;;;;0.80;0.80;;;9.50;98.00;;;;;;4976346;28;20644;-76
2021/04/30 05:56:48;;;;;;;0.90;0.90;;;9.40;98.30;;;;;;4976809;28;20204;-78
2021/04/30 05:59:15;;;;;;;0.83;0.83;;;9.30;98.50;;;;;;4976873;28;20259;-76
2021/04/30 06:01:42;;;;;;;0.73;0.73;;;9.40;98.60;;;;;;4976763;28;20204;-76
2021/04/30 06:04:09;;;;;;;0.70;0.70;;;9.30;98.60;;;;;;4976393;28;20231;-76
2021/04/30 06:06:36;;;;;;;0.70;0.70;;;9.40;98.30;;;;;;4976103;28;20657;-74
2021/04/30 06:09:04;;;;;;;0.80;0.80;;;9.60;97.90;;;;;;4976572;28;20212;-75
2021/04/30 06:11:31;;;;;;;0.80;0.80;;;9.50;98.00;;;;;;4976157;28;20669;-72
2021/04/30 06:13:58;;;;;;;0.80;0.80;;;9.70;98.60;;;;;;4982079;28;20220;-70
2021/04/30 06:16:25;;;;;;;0.80;0.80;;;9.80;98.50;;;;;;4983805;28;20208;-72
2021/04/30 06:18:52;;;;;;;0.80;0.80;;;9.50;98.40;;;;;;4984746;28;20632;-70
2021/04/30 06:21:20;;;;;;;0.70;0.70;;;9.80;98.70;;;;;;4989039;28;20200;-74
2021/04/30 06:23:46;;;;;;;0.80;0.80;;;9.80;98.20;;;;;;4987361;28;20278;-73
2021/04/30 06:26:13;;;;;;;0.90;0.90;;;9.70;98.30;;;;;;4985427;28;20208;-74
2021/04/30 06:28:41;;;;;;;0.80;0.80;;;9.60;98.30;;;;;;4984425;28;20193;-75
2021/04/30 06:31:08;;;;;;;0.80;0.80;;;9.60;98.30;;;;;;4984163;28;20213;-74
2021/04/30 06:33:35;;;;;;;0.70;0.70;;;9.50;98.70;;;;;;4986216;28;20215;-72
2021/04/30 06:36:02;;;;;;;0.70;0.70;;;9.90;98.00;;;;;;4984477;28;20569;-73
2021/04/30 06:38:29;;;;;;;0.90;0.90;;;10.00;97.90;;;;;;4980788;28;20201;-70
2021/04/30 06:40:56;;;;;;;0.70;0.70;;;10.00;97.70;;;;;;4977015;28;20657;-71
2021/04/30 06:43:23;;;;;;;0.87;0.87;;;10.10;97.40;;;;;;4975931;28;20224;-71
2021/04/30 06:45:50;;;;;;;0.73;0.73;;;10.10;97.60;;;;;;4981040;28;20244;-71
2021/04/30 06:48:17;;;;;;;0.70;0.70;;;10.20;97.20;;;;;;4984653;28;20197;-71
2021/04/30 06:50:44;;;;;;;0.80;0.80;;;10.30;96.90;;;;;;4984850;28;20279;-70
2021/04/30 06:53:11;;;;;;;0.70;0.70;;;10.30;96.70;;;;;;4977787;28;20221;-70
2021/04/30 06:55:38;;;;;;;0.85;0.85;;;10.50;96.90;;;;;;4976859;28;20223;-70
2021/04/30 06:58:05;;;;;;;0.70;0.70;;;10.40;96.40;;;;;;4979027;28;20223;-71
2021/04/30 07:00:32;;;;;;;0.80;0.80;;;10.40;96.70;;;;;;4985476;28;20228;-71
2021/04/30 07:03:00;;;;;;;0.70;0.70;;;10.50;96.90;;;;;;4984402;28;20215;-70
2021/04/30 07:05:27;;;;;;;0.80;0.80;;;10.50;96.70;;;;;;4985422;28;20200;-72
2021/04/30 07:08:02;;;;;;;0.68;0.68;;;10.50;96.80;;;;;;4987244;28;20544;-70
2021/04/30 07:10:29;;;;;;;0.60;0.60;;;10.70;96.70;;;;;;4981530;28;20307;-71
2021/04/30 07:12:56;;;;;;;0.80;0.80;;;10.70;96.40;;;;;;4994463;28;20262;-70
2021/04/30 07:15:23;;;;;;;0.70;0.70;;;10.50;96.50;;;;;;4990507;28;20251;-71
2021/04/30 07:17:50;;;;;;;0.80;0.80;;;10.50;96.70;;;;;;4984016;28;20255;-71
2021/04/30 07:20:18;;;;;;;0.70;0.70;;;10.40;97.00;;;;;;4984138;28;20246;-72
2021/04/30 07:22:44;;;;;;;0.80;0.80;;;10.40;97.10;;;;;;4985209;28;20208;-72
2021/04/30 07:25:11;;;;;;;0.70;0.70;;;10.40;97.20;;;;;;4983099;28;20207;-71
2021/04/30 07:27:38;;;;;;;0.80;0.80;;;10.60;96.50;;;;;;4980396;28;20256;-71
2021/04/30 07:30:06;;;;;;;0.70;0.70;;;10.60;96.70;;;;;;4983753;28;20279;-71
2021/04/30 07:32:33;;;;;;;0.68;0.68;;;10.60;97.10;;;;;;4994008;28;20204;-72
2021/04/30 07:35:00;;;;;;;0.80;0.80;;;10.80;96.50;;;;;;4993393;28;20656;-72
2021/04/30 07:37:29;;;;;;;0.70;0.70;;;10.80;95.80;;;;;;4993015;28;20212;-73
2021/04/30 07:39:56;;;;;;;0.68;0.68;;;10.90;95.80;;;;;;4992265;28;20562;-72
2021/04/30 07:42:22;;;;;;;0.68;0.68;;;11.00;95.60;;;;;;4994066;28;20204;-71
2021/04/30 07:44:49;;;;;;;0.70;0.70;;;11.00;95.60;;;;;;4993753;28;20224;-71
2021/04/30 07:47:16;;;;;;;0.70;0.70;;;10.90;95.50;;;;;;4977630;28;20660;-74
2021/04/30 07:49:44;;;;;;;0.85;0.85;;;10.80;95.10;;;;;;4974643;28;20227;-74
2021/04/30 07:52:11;;;;;;;0.80;0.80;;;10.90;95.00;;;;;;4976747;28;20728;-72
2021/04/30 07:54:39;;;;;;;0.70;0.70;;;10.80;95.30;;;;;;4987293;28;20291;-73
2021/04/30 07:57:06;;;;;;;0.70;0.70;;;10.90;95.30;;;;;;4982989;28;20571;-75
2021/04/30 07:59:33;;;;;;;0.60;0.60;;;10.80;95.10;;;;;;4979465;28;20197;-74
2021/04/30 08:02:00;;;;;;;0.75;0.75;;;11.00;95.20;;;;;;4981477;28;20197;-75
2021/04/30 08:04:28;;;;;;;0.80;0.80;;;10.90;95.00;;;;;;4988249;28;20230;-74
2021/04/30 08:06:56;;;;;;;0.60;0.60;;;10.80;95.70;;;;;;4974069;28;20209;-75
2021/04/30 08:09:23;;;;;;;0.70;0.70;;;10.80;95.70;;;;;;4974201;28;20228;-73
2021/04/30 08:11:51;;;;;;;0.70;0.70;;;10.90;96.10;;;;;;4974349;28;20223;-73
2021/04/30 08:14:17;;;;;;;0.73;0.73;;;11.10;96.00;;;;;;4983942;28;20216;-75
2021/04/30 08:16:44;;;;;;;0.75;0.75;;;11.50;95.70;;;;;;4993607;28;20271;-74
2021/04/30 08:19:12;;;;;;;0.73;0.73;;;11.40;96.70;;;;;;4993523;28;20204;-73
2021/04/30 08:21:38;;;;;;;0.70;0.70;;;11.30;96.70;;;;;;4993535;28;20626;-73
2021/04/30 08:24:06;;;;;;;0.63;0.63;;;11.50;96.60;;;;;;4992852;28;20720;-75
2021/04/30 08:26:33;;;;;;;0.68;0.68;;;11.30;96.60;;;;;;4993207;28;20196;-73
2021/04/30 08:29:01;;;;;;;0.60;0.60;;;11.40;97.30;;;;;;4993174;28;20274;-74
2021/04/30 08:31:28;;;;;;;0.60;0.60;;;11.50;95.30;;;;;;4993227;28;20235;-75
2021/04/30 08:33:55;;;;;;;0.60;0.60;;;11.60;95.90;;;;;;4984046;28;20216;-77
2021/04/30 08:36:22;;;;;;;0.70;0.70;;;11.70;98.00;;;;;;4976365;28;20205;-73
2021/04/30 08:38:49;;;;;;;0.70;0.70;;;11.70;97.30;;;;;;4973577;28;20208;-74
2021/04/30 08:41:19;;;;;;;0.70;0.70;;;11.60;97.00;;;;;;4973686;28;20255;-74
2021/04/30 08:43:47;;;;;;;0.68;0.68;;;11.80;96.30;;;;;;4973077;28;20237;-74
2021/04/30 08:46:15;;;;;;;0.60;0.60;;;;;;;;;;4973794;28;20204;-75
2021/04/30 08:48:43;;;;;;;0.60;0.60;;;12.30;93.50;;;;;;4973435;28;20300;-71
2021/04/30 08:51:11;;;;;;;0.60;0.60;;;12.20;93.60;;;;;;4973916;28;20227;-72
2021/04/30 08:53:40;;;;;;;0.70;0.70;;;12.40;93.00;;;;;;4973780;28;20228;-74
2021/04/30 08:56:07;;;;;;;0.70;0.70;;;12.10;92.60;;;;;;4973367;28;20247;-73
2021/04/30 08:58:37;;;;;;;0.60;0.60;;;12.10;92.80;;;;;;4973441;28;20201;-73
2021/04/30 09:01:05;;;;;;;0.60;0.60;;;12.30;93.40;;;;;;4977466;28;20196;-77
2021/04/30 09:03:35;;;;;;;0.50;0.50;;;12.70;92.80;;;;;;4979732;28;20215;-76
2021/04/30 09:06:02;;;;;;;0.63;0.63;;;12.40;92.60;;;;;;4986982;28;20646;-74
2021/04/30 09:08:43;;;;;;;0.50;0.50;;;12.30;92.60;;;;;;4992576;28;20332;-74
2021/04/30 09:11:10;;;;;;;0.50;0.50;;;12.40;92.50;;;;;;4992872;28;20282;-74
2021/04/30 09:13:40;;;;;;;0.60;0.60;;;12.40;92.10;;;;;;4992480;28;20314;-72
2021/04/30 09:16:08;;;;;;;0.60;0.60;;;12.60;92.00;;;;;;4992804;28;20208;-72
2021/04/30 09:18:36;;;;;;;0.50;0.50;;;12.60;91.90;;;;;;4992767;28;20208;-75
2021/04/30 09:21:08;;;;;;;0.60;0.60;;;12.70;92.20;;;;;;4992832;28;20612;-72
2021/04/30 09:23:41;;;;;;;0.57;0.57;;;12.50;92.80;;;;;;4993011;28;20259;-75
2021/04/30 09:26:23;;;;;;;0.60;0.60;;;12.20;92.80;;;;;;4994986;28;20207;-75
2021/04/30 09:29:00;;;;;;;0.60;0.60;;;12.30;92.90;;;;;;4996521;28;20210;-74
2021/04/30 09:31:36;;;;;;;0.70;0.70;;;12.20;92.80;;;;;;4996389;28;20219;-74
2021/04/30 09:34:19;;;;;;;0.60;0.60;;;12.60;92.40;;;;;;4995874;28;20220;-74
2021/04/30 09:37:10;;;;;;;0.50;0.50;;;12.90;90.50;;;;;;4996581;28;20207;-73
2021/04/30 09:39:53;;;;;;;0.60;0.60;;;13.10;90.70;;;;;;4996535;28;20282;-74
2021/04/30 09:42:22;;;;;;;0.65;0.65;;;13.00;91.10;;;;;;4996384;28;20728;-74
2021/04/30 09:44:51;;;;;;;0.50;0.50;;;12.70;91.40;;;;;;4996050;28;20280;-75
2021/04/30 09:47:23;;;;;;;0.50;0.50;;;12.80;91.20;;;;;;4996545;28;20646;-74
2021/04/30 09:49:53;;;;;;;0.52;0.52;;;13.20;90.30;;;;;;4996111;28;20230;-74
2021/04/30 09:52:22;;;;;;;0.60;0.60;;;13.30;90.10;;;;;;4996138;28;20258;-75
2021/04/30 09:54:49;;;;;;;0.50;0.50;;;;;;;;;;4996040;28;20246;-75
2021/04/30 09:57:19;;;;;;;0.50;0.50;;;13.50;89.10;;;;;;4996143;28;20215;-75
2021/04/30 09:59:54;;;;;;;0.50;0.50;;;13.40;89.60;;;;;;4995911;28;20200;-75
2021/04/30 10:02:23;;;;;;;0.60;0.60;;;13.60;89.70;;;;;;4996185;28;20203;-75
2021/04/30 10:04:51;;;;;;;0.60;0.60;;;13.40;90.00;;;;;;4998034;28;20288;-76
2021/04/30 10:07:27;;;;;;;0.50;0.50;;;13.20;90.00;;;;;;4996377;28;20204;-75
2021/04/30 10:10:09;;;;;;;0.50;0.50;;;13.50;90.40;;;;;;4995997;28;20231;-74
2021/04/30 10:12:37;;;;;;;0.40;0.40;;;13.80;90.00;;;;;;4995964;28;20219;-75
2021/04/30 10:15:07;;;;;;;0.60;0.60;;;13.60;89.70;;;;;;4995466;28;20226;-74
2021/04/30 10:17:34;;;;;;;0.60;0.60;;;13.30;90.40;;;;;;4995669;28;20278;-75
2021/04/30 10:20:02;;;;;;;0.50;0.50;;;13.70;89.20;;;;;;4995612;28;20665;-74
2021/04/30 10:22:28;;;;;;;0.50;0.50;;;13.70;88.50;;;;;;4995831;28;20216;-75
2021/04/30 10:25:18;;;;;;;0.50;0.50;;;13.50;89.70;;;;;;4995176;28;20561;-75
2021/04/30 10:27:46;;;;;;;0.40;0.40;;;14.10;88.40;;;;;;4995179;28;20204;-76
2021/04/30 10:30:24;;;;;;;0.52;0.52;;;13.70;90.00;;;;;;4987051;28;20247;-74
2021/04/30 10:32:53;;;;;;;0.57;0.57;;;13.50;88.60;;;;;;4995591;28;20210;-73
2021/04/30 10:35:28;;;;;;;0.43;0.43;;;13.40;91.90;;;;;;4991544;28;20216;-75
2021/04/30 10:38:06;;;;;;;0.60;0.60;;;13.70;91.80;;;;;;4982997;28;20243;-76
2021/04/30 10:40:33;;;;;;;0.57;0.57;;;14.10;89.90;;;;;;4975403;28;20205;-74
2021/04/30 10:43:18;;;;;;;0.50;0.50;;;14.00;88.50;;;;;;4975632;28;20225;-75
2021/04/30 10:46:07;;;;;;;0.50;0.50;;;13.70;88.50;;;;;;4975338;28;20226;-75
2021/04/30 10:48:40;;;;;;;0.50;0.50;;;13.50;90.20;;;;;;4975385;28;20212;-76
2021/04/30 10:51:15;;;;;;;0.50;0.50;;;13.30;91.80;;;;;;4975396;28;20246;-75
2021/04/30 10:53:45;;;;;;;0.60;0.60;;;13.40;91.80;;;;;;4975251;28;20235;-75
2021/04/30 10:56:32;;;;;;;0.50;0.50;;;13.50;92.00;;;;;;4975169;28;20724;-75
2021/04/30 10:58:59;;;;;;;0.50;0.50;;;13.50;92.50;;;;;;4975276;28;20211;-76
2021/04/30 11:01:29;;;;;;;0.55;0.55;;;13.50;93.10;;;;;;4975080;28;20260;-76
2021/04/30 11:04:16;;;;;;;0.50;0.50;;;13.80;92.70;;;;;;4975125;28;20299;-74
2021/04/30 11:06:46;;;;;;;0.50;0.50;;;14.00;91.90;;;;;;4975172;28;20204;-75
2021/04/30 11:09:15;;;;;;;0.50;0.50;;;13.70;90.30;;;;;;4975144;28;20208;-75
2021/04/30 11:11:45;;;;;;;0.50;0.50;;;14.20;88.80;;;;;;4974676;28;20609;-76
2021/04/30 11:14:25;;;;;;;0.55;0.55;;;14.10;89.40;;;;;;4974640;28;20290;-76
2021/04/30 11:16:54;;;;;;;0.50;0.50;;;14.30;89.20;;;;;;4974916;28;20550;-76
2021/04/30 11:19:21;;;;;;;0.50;0.50;;;14.40;88.90;;;;;;4974896;28;20581;-77
2021/04/30 11:21:51;;;;;;;0.50;0.50;;;14.20;89.60;;;;;;4974015;28;20255;-75
2021/04/30 11:24:40;;;;;;;0.50;0.50;;;14.10;89.90;;;;;;4974031;28;20240;-76
2021/04/30 11:27:29;;;;;;;0.60;0.60;;;13.90;90.50;;;;;;4974919;28;20204;-75
2021/04/30 11:30:23;;;;;;;0.50;0.50;;;14.00;90.90;;;;;;4966485;28;20345;-75
2021/04/30 11:32:52;;;;;;;0.50;0.50;;;14.80;99.90;;;;;;4974460;28;20212;-75
2021/04/30 11:35:20;;;;;;;0.50;0.50;;;14.60;87.80;;;;;;4974209;28;20207;-75
2021/04/30 11:37:50;;;;;;;0.50;0.50;;;15.00;99.90;;;;;;4974412;28;20670;-75
2021/04/30 11:40:23;;;;;;;0.50;0.50;;;;;;;;;;4974406;28;20196;-75
2021/04/30 11:42:50;;;;;;;0.50;0.50;;;14.70;97.60;;;;;;4974092;28;20209;-75
2021/04/30 11:45:18;;;;;;;0.50;0.50;;;14.60;84.70;;;;;;4974183;28;20216;-75
2021/04/30 11:47:45;;;;;;;0.55;0.55;;;14.50;86.00;;;;;;4973819;28;20212;-76
2021/04/30 11:50:21;;;;;;;0.57;0.57;;;14.40;86.60;;;;;;4974123;28;20315;-75
2021/04/30 11:52:49;;;;;;;0.50;0.50;;;14.00;99.10;;;;;;4974283;28;20307;-75
2021/04/30 11:55:18;;;;;;;0.50;0.50;;;14.00;87.80;;;;;;4973800;28;20204;-75
2021/04/30 11:57:51;;;;;;;0.50;0.50;;;14.10;88.50;;;;;;4974386;28;20224;-72
2021/04/30 12:00:20;;;;;;;0.50;0.50;;;13.80;89.30;;;;;;4974260;28;20208;-75
2021/04/30 12:03:02;;;;;;;0.50;0.50;;;13.50;99.90;;;;;;4974045;28;20201;-74
2021/04/30 12:05:30;;;;;;;0.60;0.60;;;13.70;90.10;;;;;;4973610;28;20295;-73
2021/04/30 12:07:58;;;;;;;0.50;0.50;;;14.20;89.30;;;;;;4973815;28;20216;-73
2021/04/30 12:10:28;;;;;;;0.50;0.50;;;14.20;89.70;;;;;;4973829;28;20279;-72
2021/04/30 12:12:55;;;;;;;0.50;0.50;;;14.40;99.40;;;;;;4974048;28;20267;-72
2021/04/30 12:15:33;;;;;;;0.50;0.50;;;14.30;88.80;;;;;;4973565;28;20259;-73
2021/04/30 12:18:02;;;;;;;0.50;0.50;;;14.50;86.10;;;;;;4973751;28;20216;-75
2021/04/30 12:20:31;;;;;;;0.50;0.50;;;14.50;85.30;;;;;;4973876;28;20251;-74
2021/04/30 12:23:01;;;;;;;0.40;0.40;;;14.60;97.90;;;;;;4973920;28;20276;-73
2021/04/30 12:25:33;;;;;;;0.50;0.50;;;14.60;86.00;;;;;;4973486;28;20204;-72
2021/04/30 12:28:17;;;;;;;0.50;0.50;;;14.90;86.70;;;;;;4973738;28;20204;-74
2021/04/30 12:30:45;;;;;;;0.50;0.50;;;15.40;83.70;;;;;;4972211;28;20307;-73
2021/04/30 12:33:21;;;;;;;0.50;0.50;;;15.40;84.30;;;;;;4973831;28;20233;-73
2021/04/30 12:35:49;;;;;;;0.50;0.50;;;15.60;83.30;;;;;;4973578;28;20215;-72
2021/04/30 12:38:20;;;;;;;0.40;0.40;;;15.60;83.50;;;;;;4973486;28;20205;-73
2021/04/30 12:40:47;;;;;;;0.40;0.40;;;15.30;79.80;;;;;;4973565;28;20259;-73
2021/04/30 12:43:22;;;;;;;0.40;0.40;;;15.60;80.10;;;;;;4973387;28;20717;-73
2021/04/30 12:45:48;;;;;;;0.50;0.50;;;15.90;81.80;;;;;;4973200;28;20215;-73
2021/04/30 12:48:15;;;;;;;0.50;0.50;;;16.00;83.30;;;;;;4973574;28;20209;-73
2021/04/30 12:50:42;;;;;;;0.50;0.50;;;15.80;82.90;;;;;;4973439;28;20220;-73
2021/04/30 12:53:10;;;;;;;0.50;0.50;;;15.40;83.60;;;;;;4973453;28;20642;-77
2021/04/30 12:55:42;;;;;;;0.50;0.50;;;15.50;83.00;;;;;;4972916;28;20207;-73
2021/04/30 12:58:15;;;;;;;0.50;0.50;;;15.90;82.10;;;;;;4973461;28;20201;-72
2021/04/30 13:01:04;;;;;;;0.50;0.50;;;16.30;81.10;;;;;;4973196;28;20224;-71
2021/04/30 13:03:42;;;;;;;0.57;0.57;;;16.40;80.50;;;;;;4973300;28;20287;-72
2021/04/30 13:06:12;;;;;;;0.40;0.40;;;16.50;78.80;;;;;;4973076;28;20670;-74
2021/04/30 13:08:41;;;;;;;0.40;0.40;;;16.50;78.70;;;;;;4973187;28;20204;-73
2021/04/30 13:11:13;;;;;;;0.40;0.40;;;16.40;79.40;;;;;;4973227;28;20224;-73
2021/04/30 13:14:00;;;;;;;0.40;0.40;;;16.30;79.10;;;;;;4973349;28;20224;-73
2021/04/30 13:16:38;;;;;;;0.47;0.47;;;16.40;78.90;;;;;;4972942;28;20209;-72
2021/04/30 13:19:07;;;;;;;0.40;0.40;;;16.30;80.00;;;;;;4973231;28;20563;-73
2021/04/30 13:21:35;;;;;;;0.40;0.40;;;16.20;79.50;;;;;;4973256;28;20616;-74
2021/04/30 13:24:24;;;;;;;0.40;0.40;;;16.50;78.20;;;;;;4973047;28;20282;-75
2021/04/30 13:27:14;;;;;;;0.50;0.50;;;16.40;77.80;;;;;;4969109;28;20215;-75
2021/04/30 13:30:01;;;;;;;0.50;0.50;;;16.20;79.20;;;;;;4973120;28;20665;-74
2021/04/30 13:32:28;;;;;;;0.50;0.50;;;16.10;79.80;;;;;;4973205;28;20201;-72
2021/04/30 13:34:56;;;;;;;0.50;0.50;;;16.00;81.30;;;;;;4972922;28;20220;-73
2021/04/30 13:37:25;;;;;;;0.50;0.50;;;16.10;81.70;;;;;;4972646;28;20267;-76
2021/04/30 13:39:53;;;;;;;0.50;0.50;;;16.00;81.80;;;;;;4973175;28;20205;-75
2021/04/30 13:42:25;;;;;;;0.50;0.50;;;15.80;82.90;;;;;;4973231;28;20271;-75
2021/04/30 13:44:54;;;;;;;0.40;0.40;;;15.90;83.20;;;;;;4973225;28;20244;-74
2021/04/30 13:47:22;;;;;;;0.50;0.50;;;16.00;83.80;;;;;;4972682;28;20291;-74
2021/04/30 13:49:56;;;;;;;0.45;0.45;;;16.10;81.70;;;;;;4972790;28;20208;-74
2021/04/30 13:52:24;;;;;;;0.50;0.50;;;16.10;81.10;;;;;;4972770;28;20231;-73
2021/04/30 13:54:51;;;;;;;0.50;0.50;;;16.10;82.10;;;;;;4972534;28;20299;-74
2021/04/30 13:57:19;;;;;;;0.50;0.50;;;16.00;81.70;;;;;;4972411;28;20259;-73
2021/04/30 13:59:46;;;;;;;0.50;0.50;;;15.90;82.10;;;;;;4972717;28;20204;-74
2021/04/30 14:02:15;;;;;;;0.50;0.50;;;15.60;82.20;;;;;;4972614;28;20204;-74
2021/04/30 14:04:43;;;;;;;0.40;0.40;;;15.50;82.90;;;;;;4972256;28;20644;-73
2021/04/30 14:07:11;;;;;;;0.50;0.50;;;15.40;82.00;;;;;;4972528;28;20280;-73
2021/04/30 14:09:38;;;;;;;0.50;0.50;;;15.40;82.00;;;;;;4972747;28;20267;-74
2021/04/30 14:12:06;;;;;;;0.50;0.50;;;15.10;82.40;;;;;;4974272;28;20224;-75
2021/04/30 14:14:35;;;;;;;0.50;0.50;;;15.30;83.50;;;;;;4975877;28;20313;-74
2021/04/30 14:17:04;;;;;;;0.40;0.40;;;15.40;84.20;;;;;;4975840;28;20200;-73
2021/04/30 14:19:33;;;;;;;0.47;0.47;;;15.20;83.50;;;;;;4976092;28;20205;-74
2021/04/30 14:22:01;;;;;;;0.50;0.50;;;14.90;84.70;;;;;;4976026;28;20204;-74
2021/04/30 14:24:29;;;;;;;0.50;0.50;;;14.90;85.00;;;;;;4975809;28;20232;-75
2021/04/30 14:26:56;;;;;;;0.50;0.50;;;15.00;85.70;;;;;;4975947;28;20211;-75
2021/04/30 14:29:24;;;;;;;0.50;0.50;;;15.30;84.20;;;;;;4975910;28;20205;-75
2021/04/30 14:31:51;;;;;;;0.40;0.40;;;15.10;83.20;;;;;;4975892;28;20232;-74
2021/04/30 14:34:18;;;;;;;0.50;0.50;;;14.90;83.20;;;;;;4976078;28;20228;-74
2021/04/30 14:36:45;;;;;;;0.50;0.50;;;15.00;83.80;;;;;;4975888;28;20228;-73
2021/04/30 14:39:13;;;;;;;0.50;0.50;;;14.90;84.20;;;;;;4976789;28;20208;-74
2021/04/30 14:41:40;;;;;;;0.50;0.50;;;14.90;84.40;;;;;;4980952;28;20196;-74
2021/04/30 14:44:07;;;;;;;0.50;0.50;;;14.90;83.60;;;;;;4983158;28;20571;-75
2021/04/30 14:46:34;;;;;;;0.40;0.40;;;14.70;84.00;;;;;;4975580;28;20258;-75
2021/04/30 14:49:01;;;;;;;0.50;0.50;;;14.70;83.30;;;;;;4975531;28;20205;-75
2021/04/30 14:51:29;;;;;;;0.50;0.50;;;14.80;84.30;;;;;;4975126;28;20228;-74
2021/04/30 14:53:56;;;;;;;0.40;0.40;;;14.80;84.00;;;;;;4974773;28;20283;-75
2021/04/30 14:56:23;;;;;;;0.55;0.55;;;14.70;83.50;;;;;;4975182;28;20247;-76
2021/04/30 14:58:50;;;;;;;0.60;0.60;;;14.30;84.00;;;;;;4974975;28;20209;-75
2021/04/30 15:01:17;;;;;;;0.50;0.50;;;14.20;83.50;;;;;;4975171;28;20216;-76
2021/04/30 15:03:44;;;;;;;0.40;0.40;;;14.10;83.60;;;;;;4974656;28;20227;-74
2021/04/30 15:06:11;;;;;;;0.50;0.50;;;14.00;85.00;;;;;;4975035;28;20259;-75
2021/04/30 15:08:41;;;;;;;0.50;0.50;;;14.00;86.80;;;;;;4974813;28;20205;-75
2021/04/30 15:11:09;;;;;;;0.40;0.40;;;14.20;86.70;;;;;;4974751;28;20217;-73
2021/04/30 15:13:39;;;;;;;0.50;0.50;;;14.30;86.00;;;;;;4974823;28;20224;-75
2021/04/30 15:16:07;;;;;;;0.40;0.40;;;14.40;85.90;;;;;;4974669;28;20219;-74
2021/04/30 15:18:34;;;;;;;0.50;0.50;;;14.40;86.30;;;;;;4990259;28;20207;-73
2021/04/30 15:21:01;;;;;;;0.50;0.50;;;14.60;85.60;;;;;;4994485;28;20235;-73
2021/04/30 15:23:28;;;;;;;0.50;0.50;;;14.50;84.60;;;;;;4993109;28;20278;-74
2021/04/30 15:25:55;;;;;;;0.50;0.50;;;14.50;84.70;;;;;;4993093;28;20204;-74
2021/04/30 15:28:22;;;;;;;0.50;0.50;;;14.60;85.30;;;;;;4994404;28;20266;-72
2021/04/30 15:30:49;;;;;;;0.50;0.50;;;15.10;94.90;;;;;;4993870;28;20322;-73
2021/04/30 15:33:16;;;;;;;0.50;0.50;;;14.70;85.90;;;;;;4994050;28;20224;-73
2021/04/30 15:35:43;;;;;;;0.50;0.50;;;14.60;86.90;;;;;;4994077;28;20212;-74
2021/04/30 15:38:09;;;;;;;0.50;0.50;;;14.10;88.00;;;;;;4994318;28;20254;-74
2021/04/30 15:40:36;;;;;;;0.50;0.50;;;14.20;88.10;;;;;;4994449;28;20200;-74
2021/04/30 15:43:04;;;;;;;0.40;0.40;;;14.20;87.10;;;;;;4994052;28;20224;-74
2021/04/30 15:45:32;;;;;;;0.50;0.50;;;14.00;86.80;;;;;;4993951;28;20258;-74
2021/04/30 15:47:58;;;;;;;0.40;0.40;;;13.90;89.00;;;;;;4993958;28;20270;-76
2021/04/30 15:50:25;;;;;;;0.60;0.60;;;13.90;88.40;;;;;;4994086;28;20208;-74
2021/04/30 15:52:53;;;;;;;0.60;0.60;;;14.10;95.70;;;;;;4993907;28;20196;-75
2021/04/30 15:55:26;;;;;;;0.50;0.50;;;14.10;87.70;;;;;;4993964;28;20299;-75
2021/04/30 15:57:53;;;;;;;0.60;0.60;;;14.20;88.40;;;;;;4993630;28;20258;-74
2021/04/30 16:00:21;;;;;;;0.50;0.50;;;14.10;88.90;;;;;;4993803;28;20251;-74
2021/04/30 16:02:48;;;;;;;0.50;0.50;;;13.90;97.20;;;;;;4993558;28;20263;-76
2021/04/30 16:05:15;;;;;;;0.50;0.50;;;13.90;90.20;;;;;;4993426;28;20680;-73
2021/04/30 16:07:42;;;;;;;0.50;0.50;;;13.80;90.20;;;;;;4993687;28;20208;-74
2021/04/30 16:10:09;;;;;;;0.50;0.50;;;13.90;90.60;;;;;;4993934;28;20625;-74
2021/04/30 16:12:36;;;;;;;0.47;0.47;;;14.00;90.40;;;;;;4993536;28;20822;-74
2021/04/30 16:15:05;;;;;;;0.57;0.57;;;14.00;90.70;;;;;;4992844;28;20274;-75
2021/04/30 16:17:32;;;;;;;0.50;0.50;;;14.00;90.50;;;;;;4993451;28;20626;-73
2021/04/30 16:19:59;;;;;;;0.40;0.40;;;13.80;91.50;;;;;;4993408;28;20668;-77
2021/04/30 16:22:27;;;;;;;0.50;0.50;;;13.90;91.80;;;;;;4993758;28;20216;-76
2021/04/30 16:24:53;;;;;;;0.60;0.60;;;13.80;92.20;;;;;;4992962;28;20290;-74
2021/04/30 16:27:20;;;;;;;0.50;0.50;;;13.70;92.50;;;;;;4993942;28;20204;-73
2021/04/30 16:29:47;;;;;;;0.50;0.50;;;13.70;92.70;;;;;;4993127;28;20200;-74
2021/04/30 16:32:14;;;;;;;0.57;0.57;;;13.80;92.90;;;;;;4993169;28;20227;-73
2021/04/30 16:34:42;;;;;;;0.50;0.50;;;14.00;92.70;;;;;;4985355;28;20263;-74
2021/04/30 16:37:10;;;;;;;0.52;0.52;;;14.00;92.20;;;;;;4986235;28;20252;-74
2021/04/30 16:39:38;;;;;;;0.60;0.60;;;13.70;92.60;;;;;;4973365;28;20615;-73
2021/04/30 16:42:05;;;;;;;0.52;0.52;;;13.60;93.00;;;;;;4973835;28;20197;-73
2021/04/30 16:44:32;;;;;;;0.47;0.47;;;13.60;93.30;;;;;;4973791;28;20227;-75
2021/04/30 16:46:59;;;;;;;0.50;0.50;;;13.60;93.60;;;;;;4988468;28;20291;-73
2021/04/30 16:49:26;;;;;;;0.60;0.60;;;13.60;93.60;;;;;;4988874;28;20677;-74
2021/04/30 16:51:54;;;;;;;0.50;0.50;;;13.60;93.70;;;;;;4983663;28;20294;-74
2021/04/30 16:54:23;;;;;;;0.68;0.68;;;13.50;93.70;;;;;;4981622;28;20224;-74
2021/04/30 16:56:50;;;;;;;0.60;0.60;;;13.50;93.90;;;;;;4976812;28;20203;-74
2021/04/30 16:59:20;;;;;;;0.60;0.60;;;13.30;93.90;;;;;;4981366;28;20200;-73
2021/04/30 17:01:46;;;;;;;0.57;0.57;;;13.30;94.30;;;;;;4982511;28;20251;-74
2021/04/30 17:04:14;;;;;;;0.60;0.60;;;13.30;94.30;;;;;;4976430;28;20220;-73
2021/04/30 17:06:41;;;;;;;0.60;0.60;;;13.20;94.50;;;;;;4986879;28;20577;-73
2021/04/30 17:09:09;;;;;;;0.60;0.60;;;13.20;94.50;;;;;;4977806;28;20193;-74
2021/04/30 17:11:36;;;;;;;0.57;0.57;;;13.10;94.70;;;;;;4974511;28;20232;-74